Observation Tools

Overcup oak Photo courtesy of Steve Baskauf, Vanderbilt University, bioimages.vanderbilt.edu.

Overcup oak (Quercus lyrata)


Plant Family: Beech (Fagaceae)
Project BudBurst Plant Group: Deciduous Trees and Shrubs

Identification Hints: Overcup oaks are found in the southeastern United States. They are commonly found in wet areas, such as lowlandsand can grow up to 66 feet tall. The leaves of the Overcup oak have rounded lobes and the shape of the entire leaf is somewhat of an elongated-lobed oval. A distinguishing feature of the Overcup oak is the acorns. In this species the acorncap covers more than half of the nut.

Did you Know? The phenology of Overcup oak helps it resist spring flooding. The leaves of Overcup oaks come out a month or more later than many other species that grow in the same areas. The flooding often kills off species whose leaves come out earlier and providing Overcucreates a competative edge for the Overcup oaks to grow.


Live Map for Overcup oak

Other years available for viewing:

Below you can view all observations that have been reported in for Overcup oak (If the map below is empty then there have not been any observations reported.)

Use the navigation buttons on the left to zoom in/out and pan around. Click on each place marker to get detail information about that observation.

Leaf/Needles/Stalk = Leaf/Needles/Stalk Flower = Flower Pollen = Pollen Fruiting = Fruiting Color = Color

--Back to Top--

close help window button

The table below displays all the data that has been submitted to Project BudBurst. By default, the data is sorted by the date on which the phenophase occurred. Clicking the up and down arrows next to each column name allows you to sort on any value. If there have been more than 10 observations submitted, you can choose how many to display at a time using the "Show __ entries" control. You can also page through the data using the previous and next buttons at the bottom right of the table.

The Search box allows you to search all of the data. Searching by date, species, phenophase, etc. is easy—just start typing and the table will immediately change to contain only observations that contain your search phrase. Do you want to see only 2012 observations? Just type "2012" in the search box. Only want to see maples? Enter "Acer." You can combine searches, too! Searching for "acer 2012" will narrow your results to only the maples that were observed in 2012 (assuming that any observations exist, of course).

Once you have your results in the order desired, you can use any of the buttons above the search box to copy the results to the clipboard; save them as a text, or spreadsheet; or even print them from your browser!

Observational data for Overcup oak:

help button
Date Contributor Common Name Species Phenophase Latitude Longitude Obs#
Sat May 01 00:00:00 GMT 2010 reynolds Overcup oak Quercus lyrata First Pollen 44.465000000000000 -93.179000000000000 10287
Wed Apr 21 00:00:00 GMT 2010 reynolds Overcup oak Quercus lyrata First Leaf 44.465000000000000 -93.179000000000000 10288
Thu Apr 29 00:00:00 GMT 2010 reynolds Overcup oak Quercus lyrata All Leaves Unfolded 44.465000000000000 -93.179000000000000 10289
Wed Apr 03 00:00:00 GMT 2013 muziguo Overcup oak Quercus lyrata Leaves Unfolding (Early) 39.165300000000000 -86.526400000000000 18483
Thu Sep 11 00:00:00 GMT 2014 MKM_Walled_Lake_Central_HS_Swamp_reporter1 Overcup oak Quercus lyrata Leaves Unfolding (None) 42.568530000000000 -83.472890000000000 35322
Thu Sep 11 00:00:00 GMT 2014 MKM_Walled_Lake_Central_HS_Swamp_reporter1 Overcup oak Quercus lyrata Leaves Changing Color (None) 42.568530000000000 -83.472890000000000 35323
Thu Sep 11 00:00:00 GMT 2014 MKM_Walled_Lake_Central_HS_Swamp_reporter1 Overcup oak Quercus lyrata Leaves Dropping (Early) 42.568530000000000 -83.472890000000000 35324
Thu Sep 11 00:00:00 GMT 2014 MKM_Walled_Lake_Central_HS_Swamp_reporter1 Overcup oak Quercus lyrata Flowers (None) 42.568530000000000 -83.472890000000000 35325
Thu Sep 11 00:00:00 GMT 2014 MKM_Walled_Lake_Central_HS_Swamp_reporter1 Overcup oak Quercus lyrata Fruit (None) 42.568530000000000 -83.472890000000000 35326
Mon Apr 06 00:00:00 GMT 2015 kgarbach_Loyola_University_Chicago_reporter172 Overcup oak Quercus lyrata Leaves Unfolding (None) 41.878110000000000 -87.629800000000000 45672
Mon Apr 06 00:00:00 GMT 2015 kgarbach_Loyola_University_Chicago_reporter172 Overcup oak Quercus lyrata Leaves Changing Color (None) 41.878110000000000 -87.629800000000000 45673
Mon Apr 06 00:00:00 GMT 2015 kgarbach_Loyola_University_Chicago_reporter172 Overcup oak Quercus lyrata Leaves Dropping (None) 41.878110000000000 -87.629800000000000 45674
Mon Apr 06 00:00:00 GMT 2015 kgarbach_Loyola_University_Chicago_reporter172 Overcup oak Quercus lyrata Flowers (None) 41.878110000000000 -87.629800000000000 45675
Mon Apr 06 00:00:00 GMT 2015 kgarbach_Loyola_University_Chicago_reporter172 Overcup oak Quercus lyrata Fruit (None) 41.878110000000000 -87.629800000000000 45676
Thu Apr 16 00:00:00 GMT 2015 kgarbach_Loyola_University_Chicago_reporter172 Overcup oak Quercus lyrata Leaves Unfolding (Early) 41.828642000000000 -87.588501000000000 46855
Thu Apr 16 00:00:00 GMT 2015 kgarbach_Loyola_University_Chicago_reporter172 Overcup oak Quercus lyrata Leaves Changing Color (Early) 41.828642000000000 -87.588501000000000 46856
Thu Apr 16 00:00:00 GMT 2015 kgarbach_Loyola_University_Chicago_reporter172 Overcup oak Quercus lyrata Leaves Dropping (None) 41.828642000000000 -87.588501000000000 46857
Thu Apr 16 00:00:00 GMT 2015 kgarbach_Loyola_University_Chicago_reporter172 Overcup oak Quercus lyrata Flowers (Early) 41.828642000000000 -87.588501000000000 46858
Thu Apr 16 00:00:00 GMT 2015 kgarbach_Loyola_University_Chicago_reporter172 Overcup oak Quercus lyrata Fruit (None) 41.828642000000000 -87.588501000000000 46859
Thu Oct 08 00:00:00 GMT 2015 rkrushinski19 Overcup oak Quercus lyrata Leaves Unfolding (None) 40.627270000000000 -74.851770000000000 53878
Thu Oct 08 00:00:00 GMT 2015 rkrushinski19 Overcup oak Quercus lyrata Leaves Changing Color (Early) 40.627270000000000 -74.851770000000000 53879
Thu Oct 08 00:00:00 GMT 2015 rkrushinski19 Overcup oak Quercus lyrata Leaves Dropping (Early) 40.627270000000000 -74.851770000000000 53880
Thu Oct 08 00:00:00 GMT 2015 rkrushinski19 Overcup oak Quercus lyrata Flowers (Early) 40.627270000000000 -74.851770000000000 53881
Thu Oct 08 00:00:00 GMT 2015 rkrushinski19 Overcup oak Quercus lyrata Fruit (None) 40.627270000000000 -74.851770000000000 53882
Wed Oct 07 00:00:00 GMT 2015 alex84484 Overcup oak Quercus lyrata Leaves Unfolding (Middle) 40.627270000000000 -74.851770000000000 53833
Wed Oct 07 00:00:00 GMT 2015 alex84484 Overcup oak Quercus lyrata Leaves Changing Color (Early) 40.627270000000000 -74.851770000000000 53834
Wed Oct 07 00:00:00 GMT 2015 alex84484 Overcup oak Quercus lyrata Leaves Dropping (Middle) 40.627270000000000 -74.851770000000000 53835
Wed Oct 07 00:00:00 GMT 2015 alex84484 Overcup oak Quercus lyrata Flowers (None) 40.627270000000000 -74.851770000000000 53836
Wed Oct 07 00:00:00 GMT 2015 alex84484 Overcup oak Quercus lyrata Fruit (None) 40.627270000000000 -74.851770000000000 53837
Thu Oct 08 00:00:00 GMT 2015 jmayer99 Overcup oak Quercus lyrata Leaves Unfolding (Early) 40.627270000000000 -74.851770000000000 53928
Thu Oct 08 00:00:00 GMT 2015 jmayer99 Overcup oak Quercus lyrata Leaves Changing Color (Late) 40.627270000000000 -74.851770000000000 53929
Thu Oct 08 00:00:00 GMT 2015 jmayer99 Overcup oak Quercus lyrata Leaves Dropping (Middle) 40.627270000000000 -74.851770000000000 53930
Thu Oct 08 00:00:00 GMT 2015 jmayer99 Overcup oak Quercus lyrata Flowers (None) 40.627270000000000 -74.851770000000000 53931
Thu Oct 08 00:00:00 GMT 2015 jmayer99 Overcup oak Quercus lyrata Fruit (None) 40.627270000000000 -74.851770000000000 53932
Mon Oct 19 00:00:00 GMT 2015 Sanyah Overcup oak Quercus lyrata 50% Color 39.152610000000000 -86.492730000000000 57485
Sun Nov 01 00:00:00 GMT 2015 Sanyah Overcup oak Quercus lyrata 50% Leaf Fall 39.152610000000000 -86.492730000000000 57486

*All downloadable materials require the free Adobe Reader.